Time;durP1;ratioP1;P1;durP2;ratioP2;P2;SDS_P1;SDS_P2;PMS_P1;PMS_P2;Temp;Humidity;BMP_temperature;BMP_pressure;BME280_temperature;BME280_humidity;BME280_pressure;Samples;Min_cycle;Max_cycle;Signal;HPM_P1;HPM_P2
2023/01/29 00:02:21;;;;;;;23.95;12.70;;;3.20;99.90;;;;;;5052236;28;20519;-49
2023/01/29 00:04:47;;;;;;;22.75;12.63;;;3.20;99.90;;;;;;5051900;28;20037;-47
2023/01/29 00:07:13;;;;;;;23.65;12.40;;;3.30;99.90;;;;;;5052057;28;20041;-50
2023/01/29 00:09:39;;;;;;;23.65;12.63;;;3.30;99.90;;;;;;5051473;28;20033;-50
2023/01/29 00:12:07;;;;;;;19.90;12.00;;;3.20;99.90;;;;;;5051866;28;20064;-50
2023/01/29 00:14:33;;;;;;;22.52;12.27;;;3.30;99.90;;;;;;5051394;28;20043;-51
2023/01/29 00:16:59;;;;;;;21.13;11.93;;;3.70;99.90;;;;;;5051775;28;20039;-50
2023/01/29 00:19:25;;;;;;;20.08;12.05;;;3.30;99.90;;;;;;5051297;28;20028;-52
2023/01/29 00:21:51;;;;;;;22.55;12.50;;;3.20;99.90;;;;;;5051818;28;20063;-50
2023/01/29 00:24:16;;;;;;;21.02;12.25;;;3.30;99.90;;;;;;5048518;28;20049;-53
2023/01/29 00:26:42;;;;;;;21.35;11.70;;;3.30;99.90;;;;;;5049903;28;20060;-48
2023/01/29 00:29:08;;;;;;;21.70;12.95;;;3.20;99.90;;;;;;5051079;28;20091;-50
2023/01/29 00:31:34;;;;;;;23.25;12.38;;;3.30;99.90;;;;;;5051611;28;20430;-49
2023/01/29 00:33:59;;;;;;;20.58;12.20;;;3.20;99.90;;;;;;5051102;28;20097;-53
2023/01/29 00:36:26;;;;;;;20.52;13.13;;;3.20;99.90;;;;;;5050040;28;20044;-50
2023/01/29 00:39:09;;;;;;;23.20;12.10;;;3.20;99.90;;;;;;5050988;28;20055;-52
2023/01/29 00:47:29;;;;;;;21.10;12.32;;;3.40;99.90;;;;;;5050829;28;20056;-51
2023/01/29 00:49:50;;;;;;;19.80;11.75;;;3.30;99.90;;;;;;5050681;28;20049;-51
2023/01/29 00:52:25;;;;;;;20.95;11.63;;;3.70;99.90;;;;;;5050770;28;20037;-53
2023/01/29 00:54:52;;;;;;;22.13;12.30;;;3.30;99.90;;;;;;5050851;28;20488;-50
2023/01/29 00:57:18;;;;;;;19.13;11.80;;;3.40;99.90;;;;;;5050847;28;20032;-53
2023/01/29 00:59:43;;;;;;;21.52;11.63;;;3.30;99.90;;;;;;5050767;28;20063;-50
2023/01/29 01:04:55;;;;;;;20.60;11.57;;;3.40;99.90;;;;;;5050032;28;20049;-49
2023/01/29 01:07:21;;;;;;;20.17;11.85;;;3.30;99.90;;;;;;5050454;28;20029;-50
2023/01/29 01:12:31;;;;;;;18.40;10.88;;;3.40;99.90;;;;;;5049380;28;20093;-48
2023/01/29 01:14:57;;;;;;;22.70;11.93;;;3.40;99.90;;;;;;5050024;28;20475;-53
2023/01/29 01:17:23;;;;;;;20.00;11.70;;;3.40;99.90;;;;;;5050444;28;20048;-50
2023/01/29 01:19:49;;;;;;;20.30;12.27;;;3.30;99.90;;;;;;5050260;28;20040;-51
2023/01/29 01:22:15;;;;;;;20.13;11.27;;;3.40;99.90;;;;;;5050663;28;20099;-56
2023/01/29 01:24:41;;;;;;;19.70;11.68;;;3.40;99.90;;;;;;5049025;28;20511;-50
2023/01/29 01:27:07;;;;;;;21.75;12.65;;;3.40;99.90;;;;;;5050394;28;20119;-50
2023/01/29 01:29:32;;;;;;;19.92;12.73;;;3.40;99.90;;;;;;5049914;28;20045;-48
2023/01/29 01:31:58;;;;;;;17.95;11.82;;;3.40;99.90;;;;;;5050472;28;20044;-52
2023/01/29 01:34:25;;;;;;;21.85;11.95;;;3.40;99.90;;;;;;5050389;28;20029;-51
2023/01/29 01:36:52;;;;;;;17.33;11.20;;;3.40;99.90;;;;;;5050282;28;20041;-51
2023/01/29 01:39:18;;;;;;;20.65;11.90;;;4.00;99.90;;;;;;5049137;28;20972;-48
2023/01/29 01:41:45;;;;;;;21.17;11.75;;;3.50;99.90;;;;;;5048819;28;20037;-50
2023/01/29 01:44:48;;;;;;;20.02;11.38;;;3.50;99.90;;;;;;5049189;28;20045;-52
2023/01/29 01:47:14;;;;;;;21.55;10.80;;;3.50;99.90;;;;;;5050033;28;20480;-50
2023/01/29 01:49:41;;;;;;;19.83;11.70;;;3.40;99.90;;;;;;5050361;28;20138;-49
2023/01/29 01:52:07;;;;;;;20.33;12.02;;;3.40;99.90;;;;;;5050024;28;20065;-49
2023/01/29 01:54:33;;;;;;;21.45;12.50;;;3.50;99.90;;;;;;5048131;28;20040;-48
2023/01/29 01:57:10;;;;;;;19.98;13.07;;;3.50;99.90;;;;;;5047924;28;20056;-50
2023/01/29 01:59:39;;;;;;;21.30;12.98;;;3.50;99.90;;;;;;5048879;28;20068;-50
2023/01/29 02:10:29;;;;;;;20.83;11.63;;;3.50;99.90;;;;;;5049681;28;20133;-51
2023/01/29 02:12:55;;;;;;;20.63;12.65;;;3.50;99.90;;;;;;5049690;28;20116;-51
2023/01/29 02:15:21;;;;;;;20.70;12.23;;;3.50;99.90;;;;;;5049419;28;20324;-50
2023/01/29 02:17:47;;;;;;;22.27;12.60;;;3.50;99.90;;;;;;5049603;28;20049;-48
2023/01/29 02:20:26;;;;;;;21.77;13.00;;;3.60;99.90;;;;;;5049790;28;20413;-52
2023/01/29 02:23:30;;;;;;;21.63;12.93;;;3.60;99.90;;;;;;5049867;28;20123;-54
2023/01/29 02:26:22;;;;;;;21.00;12.20;;;3.50;99.90;;;;;;5048444;28;20370;-53
2023/01/29 02:29:21;;;;;;;22.83;12.85;;;3.50;99.90;;;;;;5048315;28;20492;-49
2023/01/29 02:32:09;;;;;;;24.50;13.27;;;3.50;99.90;;;;;;5048187;28;20101;-51
2023/01/29 02:37:57;;;;;;;25.60;13.48;;;3.50;99.90;;;;;;5049491;28;20049;-51
2023/01/29 02:40:42;;;;;;;26.70;14.35;;;3.50;99.90;;;;;;5047360;28;20029;-51
2023/01/29 02:43:28;;;;;;;22.50;13.48;;;3.50;99.90;;;;;;5049146;28;20195;-50
2023/01/29 02:46:17;;;;;;;23.65;14.02;;;3.50;99.90;;;;;;5048997;28;20404;-49
2023/01/29 02:49:00;;;;;;;25.80;15.15;;;3.40;99.90;;;;;;5048958;28;20037;-48
2023/01/29 02:51:42;;;;;;;25.67;15.25;;;3.70;99.90;;;;;;5053358;28;20099;-51
2023/01/29 02:54:27;;;;;;;24.60;14.70;;;3.40;99.90;;;;;;5052156;28;20080;-51
2023/01/29 02:57:02;;;;;;;26.55;15.60;;;3.40;99.90;;;;;;5052644;28;20041;-52
2023/01/29 02:59:35;;;;;;;26.08;15.63;;;3.50;99.90;;;;;;5053284;28;20596;-49
2023/01/29 03:02:10;;;;;;;27.20;16.25;;;3.40;99.90;;;;;;5051861;28;20415;-53
2023/01/29 03:04:42;;;;;;;25.88;15.35;;;3.40;99.90;;;;;;5052578;28;20465;-47
2023/01/29 03:07:39;;;;;;;26.05;15.23;;;3.40;99.90;;;;;;5052904;28;20041;-50
2023/01/29 03:10:08;;;;;;;27.25;15.52;;;3.40;99.90;;;;;;5052774;28;20045;-51
2023/01/29 03:12:37;;;;;;;25.55;15.98;;;3.40;99.90;;;;;;5052985;28;20040;-50
2023/01/29 03:15:11;;;;;;;26.40;16.00;;;3.90;99.90;;;;;;5051904;28;20492;-50
2023/01/29 03:18:09;;;;;;;27.40;17.50;;;3.50;99.90;;;;;;5052790;28;20503;-49
2023/01/29 03:20:46;;;;;;;27.85;15.35;;;3.40;99.90;;;;;;5052755;28;20079;-48
2023/01/29 03:23:25;;;;;;;26.75;15.77;;;3.40;99.90;;;;;;5051421;28;20055;-53
2023/01/29 03:34:23;;;;;;;27.23;16.85;;;3.40;99.90;;;;;;5052622;28;20048;-52
2023/01/29 03:37:04;;;;;;;31.83;18.98;;;3.40;99.90;;;;;;5052808;28;20179;-48
2023/01/29 03:39:30;;;;;;;28.58;17.13;;;3.50;99.90;;;;;;5051782;28;20055;-51
2023/01/29 03:42:01;;;;;;;28.83;17.75;;;3.80;99.90;;;;;;5052457;28;20049;-53
2023/01/29 03:44:45;;;;;;;30.65;18.02;;;3.40;99.90;;;;;;5052051;28;20116;-50
2023/01/29 03:47:21;;;;;;;32.72;19.13;;;3.30;99.90;;;;;;5051660;28;20167;-51
2023/01/29 03:49:50;;;;;;;30.50;17.70;;;4.00;99.90;;;;;;5051254;28;20049;-52
2023/01/29 03:52:22;;;;;;;29.02;17.98;;;3.30;99.90;;;;;;5051750;28;20041;-50
2023/01/29 03:55:11;;;;;;;33.83;18.80;;;3.40;99.90;;;;;;5052216;28;20380;-50
2023/01/29 03:57:52;;;;;;;31.00;18.08;;;3.30;99.90;;;;;;5049589;28;20044;-52
2023/01/29 04:00:22;;;;;;;32.53;18.20;;;3.30;99.90;;;;;;5051349;28;20037;-50
2023/01/29 04:02:55;;;;;;;34.38;19.17;;;3.30;99.90;;;;;;5050270;28;20372;-48
2023/01/29 04:05:26;;;;;;;31.65;18.77;;;3.30;99.90;;;;;;5051741;28;20040;-49
2023/01/29 04:07:58;;;;;;;34.60;19.25;;;3.30;99.90;;;;;;5051921;28;20055;-51
2023/01/29 04:10:28;;;;;;;31.83;18.50;;;3.30;99.90;;;;;;5049184;28;20056;-48
2023/01/29 04:13:04;;;;;;;33.78;19.70;;;3.40;99.90;;;;;;5051466;28;20051;-51
2023/01/29 04:15:36;;;;;;;34.20;19.95;;;3.30;99.90;;;;;;5051492;28;20480;-51
2023/01/29 04:18:02;;;;;;;30.40;18.40;;;3.40;99.90;;;;;;5050820;28;20036;-50
2023/01/29 04:20:28;;;;;;;34.67;19.48;;;3.40;99.90;;;;;;5051735;28;20561;-48
2023/01/29 04:22:54;;;;;;;32.00;18.65;;;3.60;99.90;;;;;;5050157;28;20041;-49
2023/01/29 04:25:27;;;;;;;29.25;18.60;;;3.40;99.90;;;;;;5051486;28;20181;-49
2023/01/29 04:28:24;;;;;;;30.13;19.30;;;3.70;99.90;;;;;;5050262;28;20076;-50
2023/01/29 04:31:02;;;;;;;31.95;19.85;;;3.40;99.90;;;;;;5050916;28;20053;-49
2023/01/29 04:33:41;;;;;;;34.03;20.20;;;3.30;99.90;;;;;;5051472;28;20110;-47
2023/01/29 04:36:50;;;;;;;33.13;19.95;;;3.30;99.90;;;;;;5051182;28;20079;-48
2023/01/29 04:39:30;;;;;;;31.15;19.67;;;3.40;99.90;;;;;;5051343;28;20533;-49
2023/01/29 04:42:13;;;;;;;31.17;19.55;;;3.20;99.90;;;;;;5051219;28;20619;-48
2023/01/29 04:44:56;;;;;;;32.58;19.35;;;3.30;99.90;;;;;;5050204;28;20045;-49
2023/01/29 04:47:54;;;;;;;38.38;20.65;;;3.30;99.90;;;;;;5051230;28;20064;-48
2023/01/29 04:50:43;;;;;;;31.77;19.27;;;3.30;99.90;;;;;;5050359;28;20400;-46
2023/01/29 04:53:27;;;;;;;32.58;19.27;;;3.30;99.90;;;;;;5050315;28;20423;-47
2023/01/29 04:56:25;;;;;;;35.70;20.88;;;3.30;99.90;;;;;;5047460;28;20048;-48
2023/01/29 04:58:58;;;;;;;31.20;19.08;;;3.30;99.90;;;;;;5048126;28;20048;-47
2023/01/29 05:01:28;;;;;;;32.88;18.65;;;3.30;99.90;;;;;;5050600;28;20044;-49
2023/01/29 05:03:56;;;;;;;34.10;20.25;;;3.30;99.90;;;;;;5048202;28;20076;-50
2023/01/29 05:06:23;;;;;;;33.72;20.33;;;3.30;99.90;;;;;;5050594;28;20041;-48
2023/01/29 05:08:50;;;;;;;31.45;19.70;;;3.30;99.90;;;;;;5050742;28;20044;-47
2023/01/29 05:11:17;;;;;;;30.83;19.85;;;3.30;99.90;;;;;;5049174;28;20041;-52
2023/01/29 05:13:44;;;;;;;35.17;21.23;;;3.30;99.90;;;;;;5049262;28;20041;-49
2023/01/29 05:16:24;;;;;;;33.30;19.95;;;3.20;99.90;;;;;;5050231;28;20045;-47
2023/01/29 05:18:50;;;;;;;32.53;18.92;;;3.50;99.90;;;;;;5050389;28;20123;-49
2023/01/29 05:21:16;;;;;;;30.50;19.25;;;3.30;99.90;;;;;;5049468;28;20040;-49
2023/01/29 05:23:51;;;;;;;31.67;20.55;;;3.30;99.90;;;;;;5050637;28;20412;-46
2023/01/29 05:29:03;;;;;;;31.50;19.58;;;3.30;99.90;;;;;;5050469;28;20162;-50
2023/01/29 05:31:29;;;;;;;32.00;19.67;;;3.20;99.90;;;;;;5050128;28;20510;-48
2023/01/29 05:33:54;;;;;;;32.83;20.08;;;3.30;99.90;;;;;;5050287;28;20070;-50
2023/01/29 05:36:20;;;;;;;31.92;19.80;;;3.40;99.90;;;;;;5050411;28;20047;-49
2023/01/29 05:38:46;;;;;;;31.25;19.40;;;3.70;99.90;;;;;;5050348;28;20500;-48
2023/01/29 05:41:11;;;;;;;33.47;20.63;;;3.30;99.90;;;;;;5048985;28;20044;-48
2023/01/29 05:43:37;;;;;;;31.65;19.73;;;3.30;99.90;;;;;;5048143;28;20032;-51
2023/01/29 05:46:03;;;;;;;32.58;19.23;;;3.60;99.90;;;;;;5048235;28;20489;-50
2023/01/29 05:48:30;;;;;;;34.58;21.02;;;3.20;99.90;;;;;;5050271;28;20033;-48
2023/01/29 05:51:03;;;;;;;33.65;19.92;;;3.30;99.90;;;;;;5050024;28;20033;-50
2023/01/29 05:53:29;;;;;;;34.95;21.08;;;3.30;99.90;;;;;;5049988;28;20040;-50
2023/01/29 05:55:56;;;;;;;33.00;20.70;;;3.80;99.90;;;;;;5050283;28;20126;-50
2023/01/29 05:58:22;;;;;;;35.33;21.17;;;3.30;99.90;;;;;;5049824;28;20091;-48
2023/01/29 06:00:48;;;;;;;34.47;20.42;;;3.40;99.90;;;;;;5050109;28;20037;-48
2023/01/29 06:03:14;;;;;;;33.05;19.90;;;3.20;99.90;;;;;;5049951;28;20041;-51
2023/01/29 06:05:39;;;;;;;37.15;22.10;;;3.30;99.90;;;;;;5049905;28;20435;-49
2023/01/29 06:08:06;;;;;;;36.03;20.33;;;3.20;99.90;;;;;;5047649;28;20041;-48
2023/01/29 06:10:32;;;;;;;35.58;21.52;;;3.20;99.90;;;;;;5048802;28;20415;-49
2023/01/29 06:12:58;;;;;;;33.10;19.48;;;3.20;99.90;;;;;;5049633;28;20120;-52
2023/01/29 06:15:25;;;;;;;41.55;22.30;;;3.20;99.90;;;;;;5049048;28;20392;-48
2023/01/29 06:17:53;;;;;;;33.72;20.38;;;3.20;99.90;;;;;;5049536;28;20049;-48
2023/01/29 06:20:19;;;;;;;35.10;21.33;;;3.20;99.90;;;;;;5049618;28;20060;-51
2023/01/29 06:22:45;;;;;;;35.45;20.85;;;3.20;99.90;;;;;;5049746;28;20033;-51
2023/01/29 06:25:10;;;;;;;37.78;22.33;;;3.40;99.90;;;;;;5050014;28;20106;-50
2023/01/29 06:27:36;;;;;;;37.58;20.98;;;3.30;99.90;;;;;;5053413;28;20484;-50
2023/01/29 06:30:04;;;;;;;35.22;21.38;;;3.20;99.90;;;;;;5053591;28;20112;-48
2023/01/29 06:32:29;;;;;;;34.50;21.35;;;3.20;99.90;;;;;;5053346;28;20123;-50
2023/01/29 06:34:55;;;;;;;34.38;22.15;;;3.30;99.90;;;;;;5054361;28;20120;-50
2023/01/29 06:37:21;;;;;;;36.85;22.13;;;3.80;99.90;;;;;;5054174;28;20055;-48
2023/01/29 06:39:46;;;;;;;38.42;21.90;;;3.20;99.90;;;;;;5053699;28;20033;-50
2023/01/29 06:42:12;;;;;;;38.80;22.30;;;3.30;99.90;;;;;;5053193;28;20052;-48
2023/01/29 06:44:38;;;;;;;35.65;21.15;;;3.30;99.90;;;;;;5052815;28;20045;-49
2023/01/29 06:47:03;;;;;;;37.30;21.77;;;3.30;99.90;;;;;;5053456;28;20033;-49
2023/01/29 06:49:30;;;;;;;38.03;21.25;;;3.20;99.90;;;;;;5053757;28;20128;-49
2023/01/29 06:51:56;;;;;;;34.47;20.50;;;3.30;99.90;;;;;;5053701;28;20037;-49
2023/01/29 06:54:21;;;;;;;37.28;21.08;;;3.30;99.90;;;;;;5052096;28;20044;-51
2023/01/29 06:56:47;;;;;;;37.65;22.33;;;3.50;99.90;;;;;;5053185;28;20040;-51
2023/01/29 06:59:13;;;;;;;37.80;21.67;;;3.20;99.90;;;;;;5053201;28;20029;-50
2023/01/29 07:01:41;;;;;;;41.15;22.48;;;3.20;99.90;;;;;;5053066;28;20044;-51
2023/01/29 07:04:06;;;;;;;38.42;21.45;;;3.30;99.90;;;;;;5052293;28;20927;-48
2023/01/29 07:06:32;;;;;;;34.63;21.48;;;3.30;99.90;;;;;;5051237;28;20227;-50
2023/01/29 07:08:58;;;;;;;36.92;22.73;;;4.10;99.90;;;;;;5051793;28;20064;-52
2023/01/29 07:11:24;;;;;;;37.35;22.00;;;3.60;99.90;;;;;;5050891;28;20032;-48
2023/01/29 07:13:49;;;;;;;42.83;23.77;;;3.80;99.90;;;;;;5052827;28;20066;-52
2023/01/29 07:16:15;;;;;;;40.75;23.40;;;3.20;99.90;;;;;;5052464;28;20036;-48
2023/01/29 07:18:41;;;;;;;40.30;22.63;;;3.30;99.90;;;;;;5052979;28;20032;-50
2023/01/29 07:21:07;;;;;;;43.78;24.80;;;3.30;99.90;;;;;;5052742;28;20040;-51
2023/01/29 07:23:34;;;;;;;40.55;24.23;;;3.40;99.90;;;;;;5050306;28;20033;-52
2023/01/29 07:26:02;;;;;;;38.80;22.50;;;3.30;99.90;;;;;;5052386;28;20098;-50
2023/01/29 07:28:27;;;;;;;41.38;22.98;;;3.30;99.90;;;;;;5052721;28;20427;-50
2023/01/29 07:30:57;;;;;;;43.83;23.02;;;3.20;99.90;;;;;;5052340;28;20095;-48
2023/01/29 07:33:23;;;;;;;43.17;24.02;;;3.30;99.90;;;;;;5052380;28;20439;-49
2023/01/29 07:35:49;;;;;;;39.70;23.15;;;3.50;99.90;;;;;;5051056;28;20087;-50
2023/01/29 07:38:15;;;;;;;41.63;22.85;;;3.30;99.90;;;;;;5053074;28;20044;-49
2023/01/29 07:40:40;;;;;;;37.65;21.52;;;3.20;99.90;;;;;;5053103;28;20029;-50
2023/01/29 07:43:07;;;;;;;38.95;22.55;;;3.20;99.90;;;;;;5052765;28;20054;-50
2023/01/29 07:45:34;;;;;;;40.67;22.80;;;3.30;99.90;;;;;;5052000;28;20126;-51
2023/01/29 07:48:00;;;;;;;39.40;21.52;;;3.30;99.90;;;;;;5051937;28;20085;-49
2023/01/29 07:50:26;;;;;;;40.22;22.90;;;3.30;99.90;;;;;;5051910;28;20040;-51
2023/01/29 07:52:53;;;;;;;39.45;21.98;;;3.30;99.90;;;;;;5052094;28;20431;-50
2023/01/29 07:55:19;;;;;;;45.33;23.98;;;3.30;99.90;;;;;;5049900;28;20480;-51
2023/01/29 07:57:45;;;;;;;36.60;21.75;;;3.30;99.90;;;;;;5050710;28;20037;-49
2023/01/29 08:00:13;;;;;;;44.63;22.15;;;3.30;99.90;;;;;;5051901;28;20094;-52
2023/01/29 08:02:40;;;;;;;37.25;20.42;;;3.20;99.90;;;;;;5051476;28;20029;-52
2023/01/29 08:05:06;;;;;;;38.97;22.60;;;3.30;99.90;;;;;;5052768;28;20029;-49
2023/01/29 08:07:32;;;;;;;38.03;21.98;;;3.30;99.90;;;;;;5052175;28;20062;-49
2023/01/29 08:09:58;;;;;;;40.95;22.38;;;3.30;99.90;;;;;;5051884;28;20040;-50
2023/01/29 08:12:23;;;;;;;38.20;22.67;;;3.30;99.90;;;;;;5051605;28;20392;-49
2023/01/29 08:14:49;;;;;;;39.08;21.38;;;3.30;99.90;;;;;;5051495;28;20091;-49
2023/01/29 08:17:15;;;;;;;39.08;21.85;;;3.40;99.90;;;;;;5052005;28;20048;-50
2023/01/29 08:19:41;;;;;;;41.78;23.92;;;3.40;99.90;;;;;;5051496;28;20060;-50
2023/01/29 08:22:06;;;;;;;36.42;22.25;;;3.60;99.90;;;;;;5051458;28;20040;-51
2023/01/29 08:24:32;;;;;;;37.40;20.27;;;3.40;99.90;;;;;;5051439;28;20060;-51
2023/01/29 08:26:58;;;;;;;38.83;21.02;;;3.40;99.90;;;;;;5051647;28;20041;-48
2023/01/29 08:29:23;;;;;;;35.97;21.88;;;3.40;99.90;;;;;;5051915;28;20068;-49
2023/01/29 08:31:49;;;;;;;34.35;20.85;;;3.40;99.90;;;;;;5051405;28;20504;-49
2023/01/29 08:34:15;;;;;;;36.35;20.38;;;3.40;99.90;;;;;;5050287;28;20070;-50
2023/01/29 08:36:41;;;;;;;40.72;22.48;;;3.50;99.90;;;;;;5051452;28;20333;-48
2023/01/29 08:39:07;;;;;;;38.50;22.08;;;3.50;99.90;;;;;;5051119;28;20029;-52
2023/01/29 08:41:33;;;;;;;35.20;21.27;;;3.50;99.90;;;;;;5049005;28;20048;-49
2023/01/29 08:44:00;;;;;;;37.25;22.23;;;3.50;99.90;;;;;;5049213;28;20116;-51
2023/01/29 08:46:26;;;;;;;38.85;21.52;;;3.50;99.90;;;;;;5043329;28;20107;-50
2023/01/29 08:48:51;;;;;;;36.58;22.02;;;3.50;99.90;;;;;;5040946;28;20500;-51
2023/01/29 08:51:17;;;;;;;39.80;22.98;;;3.50;99.90;;;;;;5042235;28;20041;-50
2023/01/29 08:53:43;;;;;;;39.50;22.00;;;4.20;99.90;;;;;;5040819;28;20116;-50
2023/01/29 08:56:08;;;;;;;39.25;20.90;;;3.60;99.90;;;;;;5042048;28;20068;-50
2023/01/29 08:58:34;;;;;;;37.60;21.92;;;3.60;99.90;;;;;;5041678;28;20082;-52
2023/01/29 09:01:11;;;;;;;34.38;20.83;;;3.70;99.90;;;;;;5041424;28;20041;-47
2023/01/29 09:03:39;;;;;;;38.30;22.13;;;2.20;99.90;;;;;;5040850;28;20076;-53
2023/01/29 09:06:07;;;;;;;39.60;22.40;;;3.60;99.90;;;;;;5040951;28;20435;-49
2023/01/29 09:08:32;;;;;;;41.53;21.92;;;3.60;99.90;;;;;;5041396;28;20035;-48
2023/01/29 09:10:59;;;;;;;36.85;21.63;;;3.70;99.90;;;;;;5041231;28;20037;-50
2023/01/29 09:13:25;;;;;;;35.88;20.70;;;3.80;99.90;;;;;;5041276;28;20068;-48
2023/01/29 09:15:51;;;;;;;37.20;21.05;;;3.70;99.90;;;;;;5041144;28;20041;-52
2023/01/29 09:18:17;;;;;;;33.72;20.30;;;3.80;99.90;;;;;;5041448;28;20067;-52
2023/01/29 09:20:42;;;;;;;36.85;21.40;;;3.80;99.90;;;;;;5041234;28;20072;-51
2023/01/29 09:23:09;;;;;;;38.47;22.17;;;3.90;99.90;;;;;;5041063;28;20040;-50
2023/01/29 09:25:36;;;;;;;36.00;22.75;;;4.00;99.90;;;;;;5040255;28;20058;-51
2023/01/29 09:28:02;;;;;;;39.20;22.42;;;4.00;99.90;;;;;;5041090;28;20083;-52
2023/01/29 09:30:28;;;;;;;34.63;21.50;;;4.00;99.90;;;;;;5040761;28;20053;-48
2023/01/29 09:32:54;;;;;;;36.78;22.20;;;4.00;99.90;;;;;;5041273;28;20036;-49
2023/01/29 09:35:23;;;;;;;37.83;22.83;;;4.00;99.90;;;;;;5040559;28;20031;-51
2023/01/29 09:37:50;;;;;;;35.33;21.55;;;4.10;99.90;;;;;;5041363;28;20029;-53
2023/01/29 09:40:32;;;;;;;37.08;22.70;;;4.00;99.90;;;;;;5040895;28;20119;-48
2023/01/29 09:43:15;;;;;;;34.33;21.15;;;4.40;99.90;;;;;;5040678;28;20029;-52
2023/01/29 09:46:08;;;;;;;35.88;21.95;;;4.20;99.90;;;;;;5039120;28;20122;-50
2023/01/29 09:48:35;;;;;;;35.67;22.60;;;4.20;99.90;;;;;;5040917;28;20056;-50
2023/01/29 09:51:05;;;;;;;37.67;22.60;;;4.20;99.90;;;;;;5040786;28;20185;-50
2023/01/29 09:53:48;;;;;;;36.47;22.17;;;4.30;99.90;;;;;;5040585;28;20618;-51
2023/01/29 09:56:20;;;;;;;37.50;21.70;;;4.30;99.90;;;;;;5040366;28;20029;-50
2023/01/29 09:58:46;;;;;;;35.83;21.48;;;4.50;99.90;;;;;;5040270;28;20452;-51
2023/01/29 10:01:31;;;;;;;34.13;21.95;;;4.30;99.90;;;;;;5040866;28;20423;-48
2023/01/29 10:04:13;;;;;;;33.50;21.50;;;4.30;99.90;;;;;;5040670;28;20037;-49
2023/01/29 10:06:48;;;;;;;38.38;22.73;;;4.50;99.90;;;;;;5038861;28;20132;-51
2023/01/29 10:09:29;;;;;;;37.08;22.73;;;4.40;99.90;;;;;;5040432;28;20111;-49
2023/01/29 10:12:28;;;;;;;36.45;23.23;;;4.50;99.90;;;;;;5054331;28;20068;-50
2023/01/29 10:15:00;;;;;;;38.35;23.45;;;4.50;99.90;;;;;;5040573;28;20385;-50
2023/01/29 10:17:55;;;;;;;31.88;21.13;;;4.50;99.90;;;;;;5040514;28;20033;-48
2023/01/29 10:20:34;;;;;;;36.45;21.30;;;4.50;99.90;;;;;;5040664;28;20443;-48
2023/01/29 10:23:09;;;;;;;40.13;22.45;;;4.60;99.90;;;;;;5039792;28;20393;-55
2023/01/29 10:25:39;;;;;;;35.20;22.48;;;4.60;99.90;;;;;;5040422;28;20443;-50
2023/01/29 10:28:37;;;;;;;38.22;22.67;;;4.60;99.90;;;;;;5037534;28;20037;-49
2023/01/29 10:31:11;;;;;;;36.08;22.67;;;4.60;99.90;;;;;;5031703;28;20037;-50
2023/01/29 10:33:41;;;;;;;32.10;20.70;;;4.60;99.90;;;;;;5040150;28;20080;-49
2023/01/29 10:36:25;;;;;;;34.13;21.95;;;5.90;99.90;;;;;;5038571;28;20033;-50
2023/01/29 10:38:51;;;;;;;36.22;22.90;;;4.60;99.90;;;;;;5040661;28;20304;-47
2023/01/29 10:41:26;;;;;;;34.67;22.20;;;4.70;99.90;;;;;;5038832;28;20068;-53
2023/01/29 10:44:13;;;;;;;29.50;20.20;;;4.60;99.90;;;;;;5040549;28;20064;-50
2023/01/29 10:46:50;;;;;;;32.40;20.95;;;4.60;99.90;;;;;;5039840;28;20036;-52
2023/01/29 10:49:47;;;;;;;36.10;21.70;;;4.60;99.90;;;;;;5040448;28;20091;-51
2023/01/29 10:52:53;;;;;;;36.92;21.67;;;4.60;99.90;;;;;;5040157;28;20041;-48
2023/01/29 10:55:47;;;;;;;30.45;20.30;;;4.60;99.90;;;;;;5017234;28;20037;-51
2023/01/29 10:58:29;;;;;;;32.40;21.52;;;4.60;99.90;;;;;;5037224;28;20052;-52
2023/01/29 11:00:55;;;;;;;34.42;21.77;;;4.60;99.90;;;;;;5037324;28;20124;-50
2023/01/29 11:03:22;;;;;;;32.10;21.30;;;4.70;99.90;;;;;;5039198;28;20045;-52
2023/01/29 11:06:00;;;;;;;33.63;21.80;;;4.70;99.90;;;;;;5040817;28;20048;-52
2023/01/29 11:08:36;;;;;;;37.50;22.23;;;4.70;99.90;;;;;;5040701;28;20029;-49
2023/01/29 11:11:11;;;;;;;32.78;21.73;;;4.70;99.90;;;;;;5041562;28;20041;-50
2023/01/29 11:14:05;;;;;;;33.85;21.30;;;4.70;99.90;;;;;;5044274;28;20029;-54
2023/01/29 11:16:42;;;;;;;32.30;22.10;;;4.70;99.90;;;;;;5045326;28;20040;-51
2023/01/29 11:19:08;;;;;;;33.25;21.30;;;4.60;99.90;;;;;;5044946;28;20041;-49
2023/01/29 11:21:56;;;;;;;31.85;21.27;;;4.90;99.90;;;;;;5048900;28;20142;-52
2023/01/29 11:24:22;;;;;;;35.72;22.00;;;4.70;99.90;;;;;;5050858;28;20041;-53
2023/01/29 11:26:50;;;;;;;31.77;20.85;;;4.70;99.90;;;;;;5051348;28;20044;-51
2023/01/29 11:29:40;;;;;;;34.22;22.02;;;4.80;99.90;;;;;;5051289;28;20047;-49
2023/01/29 11:32:11;;;;;;;33.55;21.95;;;4.80;99.90;;;;;;5049504;28;20584;-52
2023/01/29 11:34:55;;;;;;;33.53;21.15;;;4.80;99.90;;;;;;5066357;28;20396;-49
2023/01/29 11:37:21;;;;;;;32.80;21.50;;;4.90;99.90;;;;;;5050706;28;20051;-52
2023/01/29 11:39:47;;;;;;;31.80;20.55;;;4.90;99.90;;;;;;5050764;28;20674;-52
2023/01/29 11:42:21;;;;;;;35.58;22.05;;;4.90;99.90;;;;;;5051178;28;20475;-53
2023/01/29 11:44:47;;;;;;;32.92;20.92;;;4.90;99.90;;;;;;5050371;28;20124;-51
2023/01/29 11:47:24;;;;;;;31.98;21.50;;;4.90;99.90;;;;;;5049808;28;20465;-49
2023/01/29 11:49:59;;;;;;;31.50;21.20;;;4.90;99.90;;;;;;5051153;28;20045;-54
2023/01/29 11:52:35;;;;;;;34.05;22.15;;;4.80;99.90;;;;;;5050416;28;20033;-51
2023/01/29 11:55:15;;;;;;;34.17;23.17;;;4.80;99.90;;;;;;5050836;28;20415;-48
2023/01/29 11:57:45;;;;;;;31.73;20.02;;;4.70;99.90;;;;;;5048492;28;20388;-52
2023/01/29 12:00:19;;;;;;;32.33;20.48;;;4.70;99.90;;;;;;5049676;28;20392;-50
2023/01/29 12:02:54;;;;;;;35.35;22.35;;;4.70;99.90;;;;;;5050771;28;20044;-50
2023/01/29 12:05:23;;;;;;;33.33;21.90;;;4.60;99.90;;;;;;5049964;28;20091;-50
2023/01/29 12:07:54;;;;;;;32.90;20.98;;;4.80;99.90;;;;;;5047557;28;20033;-51
2023/01/29 12:10:36;;;;;;;35.70;22.45;;;4.60;99.90;;;;;;5048467;28;20036;-52
2023/01/29 12:13:23;;;;;;;35.03;22.05;;;4.70;99.90;;;;;;5048109;28;20029;-54
2023/01/29 12:16:03;;;;;;;36.25;22.02;;;4.60;99.90;;;;;;5046476;28;20072;-52
2023/01/29 12:18:40;;;;;;;32.78;21.20;;;4.60;99.90;;;;;;5050361;28;20496;-47
2023/01/29 12:21:18;;;;;;;34.00;20.92;;;4.60;99.90;;;;;;5050188;28;20044;-53
2023/01/29 12:24:09;;;;;;;35.70;22.85;;;4.70;99.90;;;;;;5048724;28;20036;-51
2023/01/29 12:26:40;;;;;;;33.35;21.33;;;4.60;99.90;;;;;;5038635;28;20488;-49
2023/01/29 12:29:34;;;;;;;34.65;21.75;;;4.60;99.90;;;;;;5048740;28;20061;-50
2023/01/29 12:32:37;;;;;;;34.10;22.27;;;4.60;99.90;;;;;;5049556;28;20059;-49
2023/01/29 12:35:15;;;;;;;33.25;20.35;;;4.70;99.90;;;;;;5049954;28;20120;-50
2023/01/29 12:38:01;;;;;;;36.72;21.50;;;4.60;99.90;;;;;;5049196;28;20033;-49
2023/01/29 12:40:43;;;;;;;37.47;23.73;;;4.60;99.90;;;;;;5048687;28;20036;-50
2023/01/29 12:43:17;;;;;;;33.17;21.38;;;4.60;99.90;;;;;;5048413;28;20492;-49
2023/01/29 12:45:46;;;;;;;37.92;22.42;;;4.60;99.90;;;;;;5048469;28;20053;-52
2023/01/29 12:48:23;;;;;;;31.75;21.15;;;4.60;99.90;;;;;;5048005;28;20033;-48
2023/01/29 12:50:51;;;;;;;35.70;22.30;;;4.60;99.90;;;;;;5047950;28;20086;-52
2023/01/29 12:53:23;;;;;;;35.47;22.02;;;4.50;99.90;;;;;;5063580;28;20049;-50
2023/01/29 12:56:18;;;;;;;36.70;23.38;;;4.50;99.90;;;;;;5048524;28;20325;-49
2023/01/29 12:58:51;;;;;;;34.45;22.15;;;4.90;99.90;;;;;;5048815;28;20466;-50
2023/01/29 13:01:41;;;;;;;37.33;24.52;;;4.60;99.90;;;;;;5049929;28;20068;-53
2023/01/29 13:04:33;;;;;;;38.42;23.25;;;4.50;99.90;;;;;;5065293;28;20514;-47
2023/01/29 13:07:19;;;;;;;39.80;22.55;;;4.50;99.90;;;;;;5045724;28;20102;-49
2023/01/29 13:09:53;;;;;;;37.65;23.50;;;4.40;99.90;;;;;;5050810;28;20087;-49
2023/01/29 13:12:21;;;;;;;39.75;23.73;;;4.50;99.90;;;;;;5048302;28;20058;-49
2023/01/29 13:14:57;;;;;;;38.17;22.95;;;4.30;99.90;;;;;;5050832;28;20049;-49
2023/01/29 13:17:23;;;;;;;37.72;23.90;;;4.40;99.90;;;;;;5050565;28;20460;-52
2023/01/29 13:19:51;;;;;;;41.53;25.45;;;4.40;99.90;;;;;;5050810;28;20094;-49
2023/01/29 13:22:38;;;;;;;38.95;24.48;;;4.40;99.90;;;;;;5049045;28;20140;-49
2023/01/29 13:25:05;;;;;;;38.85;24.55;;;4.50;99.90;;;;;;5048052;28;20052;-49
2023/01/29 13:27:33;;;;;;;37.97;24.52;;;4.50;99.90;;;;;;5044458;28;20112;-50
2023/01/29 13:30:00;;;;;;;41.00;24.73;;;5.40;99.90;;;;;;5044908;28;20514;-50
2023/01/29 13:32:28;;;;;;;43.97;25.05;;;4.50;99.90;;;;;;5048600;28;20401;-52
2023/01/29 13:35:03;;;;;;;39.47;24.70;;;4.60;99.90;;;;;;5047407;28;20044;-51
2023/01/29 13:37:35;;;;;;;38.90;24.83;;;4.60;99.90;;;;;;5047587;28;20045;-49